Latest Weather Observations for Warwick

IDQ60901

Issued at 12:05 pm EST Monday 15 September 2014 (issued every 10 minutes, with the page automatically refreshed every 10 minutes)

About weather observations | Map of Brisbane area stations | Latest observations for Brisbane area | Other Formats
Station Details ID: 041525 Name: WARWICK Lat: -28.21 Lon: 152.10 Height: 475.4 m
Data from the previous 72 hours. | See also: Recent months at Warwick
Date/Time
EST
Tmp

°C
App
Tmp
°C
Dew
Point
°C
Rel
Hum
%
Delta-T

°C
Wind Press
QNH
hPa
Press
MSL
hPa
Rain
since
9 am
mm
Dir
 
Spd
km/h
Gust
km/h
Spd
kts
Gust
kts
15/12:00pm 21.6 19.0 9.3 45 6.7 NW 13 22 7 12 1017.1 1016.2 0.0
15/11:30am 22.4 20.1 10.4 46 6.7 NW 13 22 7 12 1017.8 1016.8 0.0
15/11:00am 21.3 19.0 10.5 50 6.0 NW 13 24 7 13 1018.4 1017.5 0.0
15/10:30am 20.8 17.8 10.8 52 5.6 W 17 24 9 13 1018.8 1017.9 0.0
15/10:00am 19.5 17.6 10.6 56 4.9 W 11 19 6 10 1019.2 1018.3 0.0
15/09:30am 18.0 17.1 11.5 66 3.6 SSW 7 13 4 7 1019.8 1018.9 0.0
15/09:00am 16.0 16.0 11.3 73 2.6 SSW 2 7 1 4 1020.0 1019.1 0.0
15/08:30am 14.7 15.2 11.6 82 1.7 CALM 0 6 0 3 1020.2 1019.3 0.0
15/08:00am 13.2 13.5 11.0 86 1.2 CALM 0 0 0 0 1020.1 1019.2 0.0
15/07:30am 11.1 9.4 9.9 92 0.6 NE 9 9 5 5 1020.0 1019.1 0.0
15/07:00am 10.0 8.4 8.8 92 0.6 ENE 7 9 4 5 1019.9 1019.0 0.0
15/06:30am 7.9 7.3 7.3 96 0.3 CALM 0 0 0 0 1019.8 1018.9 0.0
15/06:00am 7.2 6.5 7.0 99 0.1 CALM 0 0 0 0 1019.6 1018.6 0.0
15/05:30am 6.3 5.0 6.1 99 0.1 NW 2 9 1 5 1019.1 1018.2 0.0
15/05:00am 6.4 5.5 6.2 99 0.1 CALM 0 0 0 0 1018.9 1018.0 0.0
15/04:30am 7.6 6.2 7.4 99 0.1 NE 4 7 2 4 1018.4 1017.5 0.0
15/04:00am 7.4 6.8 7.2 99 0.1 CALM 0 0 0 0 1018.3 1017.4 0.0
15/03:30am 8.0 7.5 7.8 99 0.1 CALM 0 0 0 0 1018.3 1017.4 0.0
15/03:00am 7.7 5.3 7.1 96 0.3 NE 9 9 5 5 1018.5 1017.6 0.0
15/02:30am 8.7 8.3 8.3 97 0.2 CALM 0 0 0 0 1018.6 1017.7 0.0
15/02:00am 8.7 8.4 8.7 100 0.0 CALM 0 0 0 0 1018.7 1017.8 0.0
15/01:30am 9.2 8.8 8.4 95 0.4 CALM 0 0 0 0 1018.9 1018.0 0.0
15/01:00am 9.2 8.8 8.2 93 0.5 CALM 0 0 0 0 1019.1 1018.2 0.0
15/12:30am 11.2 11.3 10.2 94 0.5 CALM 0 0 0 0 1019.3 1018.4 0.0
15/12:00am 11.3 10.2 9.8 90 0.8 WSW 6 9 3 5 1019.6 1018.6 0.0
 
Date/Time
EST
Tmp

°C
App
Tmp
°C
Dew
Point
°C
Rel
Hum
%
Delta-T

°C
Wind Press
QNH
hPa
Press
MSL
hPa
Rain
since
9 am
mm
Dir
 
Spd
km/h
Gust
km/h
Spd
kts
Gust
kts
14/11:30pm 12.3 11.0 10.0 86 1.2 W 7 9 4 5 1019.7 1018.7 0.0
14/11:00pm 11.8 10.4 9.7 87 1.1 WSW 7 11 4 6 1019.7 1018.7 0.0
14/10:30pm 12.6 11.3 9.9 83 1.4 W 7 11 4 6 1019.8 1018.9 0.0
14/10:00pm 12.5 12.6 10.0 85 1.3 CALM 0 0 0 0 1019.8 1018.9 0.0
14/09:30pm 14.2 13.4 9.8 75 2.3 W 4 7 2 4 1019.8 1018.9 0.0
14/09:00pm 14.7 13.6 9.8 72 2.6 ENE 6 9 3 5 1019.6 1018.6 0.0
14/08:30pm 14.7 13.5 10.2 74 2.4 E 7 11 4 6 1019.6 1018.6 0.0
14/08:00pm 16.1 12.8 9.7 66 3.4 NNE 17 20 9 11 1019.5 1018.5 0.0
14/07:30pm 15.0 12.7 10.5 74 2.4 NNE 13 17 7 9 1019.3 1018.4 0.0
14/07:00pm 16.0 13.8 10.7 71 2.9 NNE 13 15 7 8 1019.1 1018.2 0.0
14/06:30pm 17.0 14.4 10.8 67 3.4 NNE 15 17 8 9 1018.8 1017.9 0.0
14/06:00pm 18.5 15.5 10.5 59 4.4 NNE 17 20 9 11 1018.6 1017.7 0.0
14/05:30pm 19.3 16.2 10.4 56 4.9 NNE 17 19 9 10 1018.4 1017.5 0.0
14/05:00pm 20.9 17.7 8.6 45 6.6 NE 15 17 8 9 1018.2 1017.3 0.0
14/04:30pm 21.7 18.7 7.8 40 7.4 NE 13 17 7 9 1018.2 1017.3 0.0
14/04:00pm 22.0 19.8 7.7 39 7.6 ENE 9 13 5 7 1018.2 1017.3 0.0
14/03:30pm 21.4 19.2 6.3 37 7.8 SW 7 9 4 5 1018.4 1017.5 0.0
14/03:00pm 21.5 19.9 8.2 42 7.1 WSW 6 9 3 5 1018.5 1017.6 0.0
14/02:30pm 21.8 21.2 7.2 39 7.7 CALM 0 7 0 4 1018.7 1017.8 0.0
14/02:00pm 21.9 20.2 7.6 39 7.6 NNE 6 13 3 7 1019.0 1018.1 0.0
14/01:30pm 22.1 20.2 9.1 43 7.1 WNW 9 19 5 10 1019.5 1018.5 0.0
14/01:00pm 21.4 20.3 9.8 47 6.4 W 6 15 3 8 1020.0 1019.1 0.0
14/12:30pm 20.9 19.4 10.4 51 5.8 WNW 9 17 5 9 1020.6 1019.7 0.0
14/12:00pm 20.4 18.2 9.3 49 6.0 WSW 11 19 6 10 1021.2 1020.3 0.0
14/11:30am 19.9 18.3 10.3 54 5.3 WNW 9 15 5 8 1021.8 1020.9 0.0
14/11:00am 18.8 18.1 11.3 61 4.2 NNW 6 15 3 8 1022.3 1021.4 0.0
14/10:30am 18.8 17.7 10.0 56 4.8 NE 6 11 3 6 1022.7 1021.8 0.0
14/10:00am 16.7 16.2 12.0 74 2.6 S 6 9 3 5 1023.0 1022.1 0.0
14/09:30am 15.0 15.4 11.1 77 2.1 CALM 0 7 0 4 1023.4 1022.6 0.0
14/09:00am 12.9 13.1 10.6 86 1.2 CALM 0 0 0 0 1023.6 1022.8 6.8
14/08:30am 10.5 10.4 9.5 93 0.5 CALM 0 6 0 3 1023.7 1022.9 6.8
14/08:00am 9.3 9.0 8.7 96 0.3 CALM 0 0 0 0 1023.7 1022.9 6.8
14/07:30am 8.7 8.4 8.5 99 0.1 CALM 0 0 0 0 1023.4 1022.6 6.8
14/07:00am 7.8 6.2 7.8 100 0.0 NE 6 7 3 4 1023.2 1022.3 6.8
14/06:30am 7.4 5.4 7.2 99 0.1 NE 7 9 4 5 1023.0 1022.1 6.8
14/06:00am 7.2 5.2 7.2 100 0.0 NE 7 9 4 5 1023.0 1022.1 6.8
14/05:30am 7.0 5.0 7.0 100 0.0 ENE 7 11 4 6 1022.8 1021.9 6.8
14/05:00am 7.7 7.1 7.5 99 0.1 CALM 0 2 0 1 1022.9 1022.0 6.8
14/04:30am 7.3 6.6 6.9 97 0.2 CALM 0 0 0 0 1022.7 1021.8 6.8
14/04:00am 7.4 6.7 7.0 97 0.2 CALM 0 0 0 0 1022.4 1021.5 6.8
14/03:30am 7.9 7.3 7.3 96 0.3 CALM 0 0 0 0 1022.2 1021.3 6.8
14/03:00am 7.2 6.5 7.0 99 0.1 CALM 0 0 0 0 1022.4 1021.5 6.8
14/02:30am 7.9 7.4 7.7 99 0.1 CALM 0 0 0 0 1022.6 1021.7 6.6
14/02:00am 8.4 7.9 8.0 97 0.2 CALM 0 0 0 0 1023.0 1022.1 6.6
14/01:30am 8.6 7.0 8.2 97 0.2 N 6 9 3 5 1023.2 1022.3 6.6
14/01:00am 8.6 7.0 8.0 96 0.3 NE 6 11 3 6 1023.5 1022.7 6.6
14/12:30am 8.8 8.4 8.4 97 0.2 CALM 0 0 0 0 1023.5 1022.7 6.6
14/12:00am 9.0 8.7 8.6 97 0.2 CALM 0 0 0 0 1023.7 1022.9 6.6
 
Date/Time
EST
Tmp

°C
App
Tmp
°C
Dew
Point
°C
Rel
Hum
%
Delta-T

°C
Wind Press
QNH
hPa
Press
MSL
hPa
Rain
since
9 am
mm
Dir
 
Spd
km/h
Gust
km/h
Spd
kts
Gust
kts
13/11:30pm 9.5 9.3 9.1 97 0.2 CALM 0 0 0 0 1023.8 1023.0 6.6
13/11:00pm 10.8 10.9 10.0 95 0.4 CALM 0 0 0 0 1024.0 1023.1 6.6
13/10:30pm 10.6 10.4 10.4 99 0.1 W 2 7 1 4 1024.3 1023.4 6.6
13/10:00pm 11.2 11.4 10.4 95 0.4 CALM 0 0 0 0 1024.5 1023.6 6.6
13/09:30pm 12.6 13.0 11.1 91 0.8 CALM 0 0 0 0 1024.5 1023.6 6.6
13/09:00pm 13.3 12.4 11.3 88 1.1 E 7 9 4 5 1024.6 1023.7 6.6
13/08:30pm 13.4 13.2 11.7 89 0.9 E 4 9 2 5 1024.5 1023.6 6.6
13/08:00pm 13.9 13.2 11.5 85 1.3 E 6 9 3 5 1024.6 1023.7 6.6
13/07:30pm 14.2 10.9 10.9 80 1.8 NE 19 24 10 13 1024.4 1023.5 6.6
13/07:00pm 14.1 12.0 12.3 89 1.0 NE 15 20 8 11 1024.3 1023.4 6.6
13/06:30pm 13.2 12.9 11.3 88 1.0 E 4 11 2 6 1023.8 1023.0 6.6
13/06:00pm 13.8 11.0 11.2 84 1.4 NE 17 22 9 12 1023.0 1022.1 6.0
13/05:30pm 13.9 12.7 11.5 85 1.3 E 9 13 5 7 1022.4 1021.5 3.4
13/05:00pm 17.6 14.7 8.0 53 5.0 S 13 20 7 11 1021.5 1020.7 0.0
13/04:30pm 20.6 16.9 7.9 44 6.7 NNE 17 20 9 11 1020.9 1020.0 0.0
13/04:00pm 20.9 17.2 7.9 43 6.9 NE 17 22 9 12 1021.0 1020.1 0.0
13/03:30pm 21.4 18.8 7.8 41 7.2 ENE 11 20 6 11 1020.7 1019.8 0.0
13/03:00pm 21.8 19.6 6.3 36 8.0 ESE 7 15 4 8 1020.9 1020.0 0.0
13/02:30pm 22.2 20.2 6.1 35 8.3 E 6 13 3 7 1021.1 1020.2 0.0
13/02:00pm 22.2 19.9 7.5 38 7.8 E 9 17 5 9 1021.4 1020.5 0.0
13/01:30pm 21.9 20.4 8.3 41 7.3 SE 6 17 3 9 1022.1 1021.2 0.0
13/01:00pm 21.3 19.7 8.2 43 7.0 S 6 9 3 5 1022.5 1021.6 0.0
13/12:30pm 20.6 18.9 8.2 45 6.6 SSE 7 15 4 8 1022.8 1021.9 0.0
13/12:00pm 20.4 17.4 7.9 44 6.6 ESE 13 22 7 12 1023.2 1022.3 0.0
13/11:30am 19.5 16.7 8.6 49 5.8 SSE 13 20 7 11 1023.5 1022.7 0.0
13/11:00am 19.4 17.1 8.9 50 5.6 E 11 17 6 9 1024.1 1023.2 0.0
13/10:30am 19.0 17.5 9.1 52 5.3 E 7 20 4 11 1024.3 1023.4 0.0
13/10:00am 18.9 17.1 9.4 54 5.1 ENE 9 17 5 9 1024.6 1023.7 0.0
13/09:30am 17.5 16.4 10.1 62 4.0 ENE 6 13 3 7 1024.8 1023.9 0.0
13/09:00am 16.7 15.5 10.4 66 3.4 ESE 7 15 4 8 1024.8 1023.9 0.0
13/08:30am 15.8 14.3 10.4 70 2.9 SE 9 17 5 9 1024.8 1023.9 0.0
13/08:00am 13.9 14.2 10.9 82 1.6 CALM 0 0 0 0 1024.8 1023.9 0.0
13/07:30am 12.7 12.1 10.4 86 1.2 NE 4 7 2 4 1024.5 1023.6 0.0
13/07:00am 11.4 11.5 10.3 93 0.6 CALM 0 0 0 0 1024.0 1023.1 0.0
13/06:30am 11.1 11.1 9.9 92 0.6 CALM 0 0 0 0 1023.6 1022.8 0.0
13/06:00am 9.7 9.5 8.9 95 0.4 CALM 0 0 0 0 1023.2 1022.3 0.0
13/05:30am 10.4 10.3 9.4 93 0.5 CALM 0 6 0 3 1023.0 1022.1 0.0
13/05:00am 10.5 10.0 9.3 92 0.6 NNE 2 7 1 4 1022.7 1021.8 0.0
13/04:30am 10.3 10.0 8.7 90 0.8 CALM 0 0 0 0 1022.4 1021.5 0.0
13/04:00am 10.8 10.5 8.6 86 1.1 CALM 0 0 0 0 1022.4 1021.5 0.0
13/03:30am 10.2 9.9 8.8 91 0.7 CALM 0 0 0 0 1022.5 1021.6 0.0
13/03:00am 10.5 10.3 8.9 90 0.8 CALM 0 0 0 0 1022.6 1021.7 0.0
13/02:30am 10.8 10.2 8.8 87 1.0 NNE 2 6 1 3 1022.8 1021.9 0.0
13/02:00am 10.9 9.5 8.7 86 1.1 NE 6 9 3 5 1022.9 1022.0 0.0
13/01:30am 10.9 9.0 8.9 87 1.0 NE 9 13 5 7 1023.1 1022.2 0.0
13/01:00am 11.9 11.0 9.4 85 1.3 NE 4 9 2 5 1023.3 1022.4 0.0
13/12:30am 12.1 10.9 9.4 83 1.4 NE 6 9 3 5 1023.5 1022.7 0.0
13/12:00am 12.4 11.5 9.3 81 1.6 ENE 4 9 2 5 1023.5 1022.7 0.0
 
Date/Time
EST
Tmp

°C
App
Tmp
°C
Dew
Point
°C
Rel
Hum
%
Delta-T

°C
Wind Press
QNH
hPa
Press
MSL
hPa
Rain
since
9 am
mm
Dir
 
Spd
km/h
Gust
km/h
Spd
kts
Gust
kts
12/11:30pm 12.6 11.0 8.7 77 2.0 NE 7 13 4 7 1023.6 1022.8 0.0
12/11:00pm 13.1 11.7 9.0 76 2.1 E 6 9 3 5 1023.4 1022.6 0.0
12/10:30pm 12.9 10.5 8.8 76 2.1 NNE 11 13 6 7 1023.3 1022.4 0.0
12/10:00pm 13.5 12.0 9.3 76 2.2 ESE 7 11 4 6 1023.1 1022.2 0.0
12/09:30pm 13.8 12.4 9.4 75 2.3 ESE 7 13 4 7 1023.1 1022.2 0.0
12/09:00pm 13.4 12.7 10.2 81 1.7 SE 4 11 2 6 1022.9 1022.0 0.0
12/08:30pm 14.0 12.8 9.6 75 2.3 E 6 9 3 5 1022.9 1022.0 0.0
12/08:00pm 14.7 13.0 9.8 72 2.6 ENE 9 11 5 6 1022.7 1021.8 0.0
12/07:30pm 15.3 13.4 9.0 66 3.3 ENE 9 11 5 6 1022.4 1021.5 0.0
12/07:00pm 16.5 15.2 9.3 62 3.8 ENE 6 11 3 6 1022.0 1021.1 0.0
12/06:30pm 17.1 16.0 9.8 62 3.9 ESE 6 9 3 5 1021.4 1020.5 0.0
12/06:00pm 18.7 16.9 9.6 55 4.9 SE 9 17 5 9 1021.0 1020.1 0.0
12/05:30pm 20.4 18.8 8.2 45 6.5 E 6 11 3 6 1020.8 1019.9 0.0
12/05:00pm 21.4 18.3 7.1 39 7.5 E 13 20 7 11 1020.4 1019.5 0.0
12/04:30pm 22.5 19.5 7.9 39 7.8 SE 13 26 7 14 1020.3 1019.4 0.0
12/04:00pm 22.3 19.4 8.1 40 7.6 SE 13 20 7 11 1020.2 1019.3 0.0
12/03:30pm 22.8 20.0 8.4 39 7.8 SE 13 24 7 13 1020.0 1019.1 0.0
12/03:00pm 22.8 20.0 8.4 39 7.8 SE 13 22 7 12 1020.0 1019.1 0.0
12/02:30pm 22.8 19.4 7.6 37 8.1 ESE 15 22 8 12 1020.2 1019.3 0.0
12/02:00pm 22.4 20.2 9.3 43 7.2 E 11 24 6 13 1020.3 1019.4 0.0
12/01:30pm 22.7 19.6 8.7 40 7.6 SE 15 24 8 13 1020.5 1019.6 0.0
12/01:00pm 22.7 18.6 8.5 40 7.7 SSE 20 32 11 17 1020.8 1019.9 0.0
12/12:30pm 22.6 19.1 8.6 40 7.6 SE 17 28 9 15 1021.2 1020.3 0.0

Latest Capital City Observations: Canberra | Sydney | Melbourne | Brisbane | Adelaide | Perth | Hobart | Darwin

Other Formats:

Comma delimited format used in spreadsheet applications
http://www.bom.gov.au/fwo/IDQ60901/IDQ60901.94555.axf

JavaScript Object Notation format (JSON) in row-major order
http://www.bom.gov.au/fwo/IDQ60901/IDQ60901.94555.json